sensor_id;sensor_type;location;lat;lon;timestamp;temperature;humidity
18450;DHT22;9354;50.194;7.690;2023-06-22T00:02:21;22.90;99.90
18450;DHT22;9354;50.194;7.690;2023-06-22T00:04:49;22.80;99.90
18450;DHT22;9354;50.194;7.690;2023-06-22T00:07:18;22.80;99.90
18450;DHT22;9354;50.194;7.690;2023-06-22T00:09:45;22.70;99.90
18450;DHT22;9354;50.194;7.690;2023-06-22T00:12:12;22.60;99.90
18450;DHT22;9354;50.194;7.690;2023-06-22T00:14:39;22.50;99.90
18450;DHT22;9354;50.194;7.690;2023-06-22T00:17:07;22.30;99.90
18450;DHT22;9354;50.194;7.690;2023-06-22T00:19:34;22.30;99.90
18450;DHT22;9354;50.194;7.690;2023-06-22T00:22:02;22.20;99.90
18450;DHT22;9354;50.194;7.690;2023-06-22T00:24:31;22.20;99.90
18450;DHT22;9354;50.194;7.690;2023-06-22T00:26:59;22.20;99.90
18450;DHT22;9354;50.194;7.690;2023-06-22T00:29:26;22.10;99.90
18450;DHT22;9354;50.194;7.690;2023-06-22T00:31:53;22.00;99.90
18450;DHT22;9354;50.194;7.690;2023-06-22T00:34:21;21.90;99.90
18450;DHT22;9354;50.194;7.690;2023-06-22T00:36:48;21.80;99.90
18450;DHT22;9354;50.194;7.690;2023-06-22T00:39:17;21.80;99.90
18450;DHT22;9354;50.194;7.690;2023-06-22T00:41:46;21.80;99.90
18450;DHT22;9354;50.194;7.690;2023-06-22T00:44:13;21.70;99.90
18450;DHT22;9354;50.194;7.690;2023-06-22T00:46:41;21.70;99.90
18450;DHT22;9354;50.194;7.690;2023-06-22T00:49:08;21.70;99.90
18450;DHT22;9354;50.194;7.690;2023-06-22T00:51:37;21.70;99.90
18450;DHT22;9354;50.194;7.690;2023-06-22T00:54:05;21.70;99.90
18450;DHT22;9354;50.194;7.690;2023-06-22T00:56:32;21.70;99.90
18450;DHT22;9354;50.194;7.690;2023-06-22T00:59:04;21.60;99.90
18450;DHT22;9354;50.194;7.690;2023-06-22T01:01:32;21.50;99.90
18450;DHT22;9354;50.194;7.690;2023-06-22T01:04:00;21.40;99.90
18450;DHT22;9354;50.194;7.690;2023-06-22T01:06:32;21.30;99.90
18450;DHT22;9354;50.194;7.690;2023-06-22T01:09:11;21.30;99.90
18450;DHT22;9354;50.194;7.690;2023-06-22T01:11:44;21.20;99.90
18450;DHT22;9354;50.194;7.690;2023-06-22T01:14:18;21.20;99.90
18450;DHT22;9354;50.194;7.690;2023-06-22T01:16:49;21.20;99.90
18450;DHT22;9354;50.194;7.690;2023-06-22T01:19:34;21.20;99.90
18450;DHT22;9354;50.194;7.690;2023-06-22T01:22:03;21.10;99.90
18450;DHT22;9354;50.194;7.690;2023-06-22T01:24:40;21.10;99.90
18450;DHT22;9354;50.194;7.690;2023-06-22T01:27:17;21.10;99.90
18450;DHT22;9354;50.194;7.690;2023-06-22T01:29:51;21.00;99.90
18450;DHT22;9354;50.194;7.690;2023-06-22T01:32:19;20.90;99.90
18450;DHT22;9354;50.194;7.690;2023-06-22T01:34:47;20.90;99.90
18450;DHT22;9354;50.194;7.690;2023-06-22T01:37:15;20.80;99.90
18450;DHT22;9354;50.194;7.690;2023-06-22T01:39:44;20.80;99.90
18450;DHT22;9354;50.194;7.690;2023-06-22T01:42:12;20.80;99.90
18450;DHT22;9354;50.194;7.690;2023-06-22T01:44:40;20.80;99.90
18450;DHT22;9354;50.194;7.690;2023-06-22T01:47:09;20.80;99.90
18450;DHT22;9354;50.194;7.690;2023-06-22T01:49:36;20.90;99.90
18450;DHT22;9354;50.194;7.690;2023-06-22T01:52:04;20.90;99.90
18450;DHT22;9354;50.194;7.690;2023-06-22T01:54:32;21.00;99.90
18450;DHT22;9354;50.194;7.690;2023-06-22T01:57:00;20.90;99.90
18450;DHT22;9354;50.194;7.690;2023-06-22T01:59:31;20.90;99.90
18450;DHT22;9354;50.194;7.690;2023-06-22T02:02:06;20.90;99.90
18450;DHT22;9354;50.194;7.690;2023-06-22T02:04:40;20.90;99.90
18450;DHT22;9354;50.194;7.690;2023-06-22T02:07:15;20.90;99.90
18450;DHT22;9354;50.194;7.690;2023-06-22T02:09:45;20.90;99.90
18450;DHT22;9354;50.194;7.690;2023-06-22T02:12:18;20.90;99.90
18450;DHT22;9354;50.194;7.690;2023-06-22T02:14:46;20.90;99.90
18450;DHT22;9354;50.194;7.690;2023-06-22T02:17:14;20.90;99.90
18450;DHT22;9354;50.194;7.690;2023-06-22T02:19:43;21.00;99.90
18450;DHT22;9354;50.194;7.690;2023-06-22T02:22:10;21.10;99.90
18450;DHT22;9354;50.194;7.690;2023-06-22T02:24:38;21.10;99.90
18450;DHT22;9354;50.194;7.690;2023-06-22T02:27:06;21.10;99.90
18450;DHT22;9354;50.194;7.690;2023-06-22T02:29:33;21.10;99.90
18450;DHT22;9354;50.194;7.690;2023-06-22T02:32:01;21.10;99.90
18450;DHT22;9354;50.194;7.690;2023-06-22T02:34:28;21.10;99.90
18450;DHT22;9354;50.194;7.690;2023-06-22T02:36:57;21.10;99.90
18450;DHT22;9354;50.194;7.690;2023-06-22T02:39:27;21.00;99.90
18450;DHT22;9354;50.194;7.690;2023-06-22T02:41:54;20.90;99.90
18450;DHT22;9354;50.194;7.690;2023-06-22T02:44:22;20.90;99.90
18450;DHT22;9354;50.194;7.690;2023-06-22T02:46:49;20.90;99.90
18450;DHT22;9354;50.194;7.690;2023-06-22T02:49:17;20.80;99.90
18450;DHT22;9354;50.194;7.690;2023-06-22T02:51:46;20.80;99.90
18450;DHT22;9354;50.194;7.690;2023-06-22T02:54:15;20.70;99.90
18450;DHT22;9354;50.194;7.690;2023-06-22T02:56:43;20.70;99.90
18450;DHT22;9354;50.194;7.690;2023-06-22T02:59:11;20.70;99.90
18450;DHT22;9354;50.194;7.690;2023-06-22T03:01:38;20.80;99.90
18450;DHT22;9354;50.194;7.690;2023-06-22T03:04:07;20.80;99.90
18450;DHT22;9354;50.194;7.690;2023-06-22T03:06:34;20.80;99.90
18450;DHT22;9354;50.194;7.690;2023-06-22T03:09:03;20.80;99.90
18450;DHT22;9354;50.194;7.690;2023-06-22T03:11:33;20.80;99.90
18450;DHT22;9354;50.194;7.690;2023-06-22T03:14:01;20.80;99.90
18450;DHT22;9354;50.194;7.690;2023-06-22T03:16:28;20.80;99.90
18450;DHT22;9354;50.194;7.690;2023-06-22T03:18:56;20.80;99.90
18450;DHT22;9354;50.194;7.690;2023-06-22T03:21:23;20.80;99.90
18450;DHT22;9354;50.194;7.690;2023-06-22T03:23:51;20.80;99.90
18450;DHT22;9354;50.194;7.690;2023-06-22T03:26:18;20.80;99.90
18450;DHT22;9354;50.194;7.690;2023-06-22T03:28:47;20.80;99.90
18450;DHT22;9354;50.194;7.690;2023-06-22T03:31:14;20.70;99.90
18450;DHT22;9354;50.194;7.690;2023-06-22T03:33:42;20.70;99.90
18450;DHT22;9354;50.194;7.690;2023-06-22T03:36:09;20.70;99.90
18450;DHT22;9354;50.194;7.690;2023-06-22T03:38:37;20.70;99.90
18450;DHT22;9354;50.194;7.690;2023-06-22T03:41:04;20.70;99.90
18450;DHT22;9354;50.194;7.690;2023-06-22T03:43:32;20.70;99.90
18450;DHT22;9354;50.194;7.690;2023-06-22T03:46:00;20.70;99.90
18450;DHT22;9354;50.194;7.690;2023-06-22T03:48:28;20.70;99.90
18450;DHT22;9354;50.194;7.690;2023-06-22T03:50:55;20.70;99.90
18450;DHT22;9354;50.194;7.690;2023-06-22T03:53:22;20.60;99.90
18450;DHT22;9354;50.194;7.690;2023-06-22T03:55:51;20.70;99.90
18450;DHT22;9354;50.194;7.690;2023-06-22T03:58:19;20.60;99.90
18450;DHT22;9354;50.194;7.690;2023-06-22T04:00:46;20.60;99.90
18450;DHT22;9354;50.194;7.690;2023-06-22T04:03:16;20.60;99.90
18450;DHT22;9354;50.194;7.690;2023-06-22T04:05:45;20.70;99.90
18450;DHT22;9354;50.194;7.690;2023-06-22T04:08:12;20.70;99.90
18450;DHT22;9354;50.194;7.690;2023-06-22T04:10:40;20.70;99.90
18450;DHT22;9354;50.194;7.690;2023-06-22T04:13:07;20.70;99.90
18450;DHT22;9354;50.194;7.690;2023-06-22T04:15:35;20.70;99.90
18450;DHT22;9354;50.194;7.690;2023-06-22T04:18:02;20.80;99.90
18450;DHT22;9354;50.194;7.690;2023-06-22T04:20:32;20.80;99.90
18450;DHT22;9354;50.194;7.690;2023-06-22T04:22:59;20.80;99.90
18450;DHT22;9354;50.194;7.690;2023-06-22T04:25:27;20.80;99.90
18450;DHT22;9354;50.194;7.690;2023-06-22T04:27:54;20.80;99.90
18450;DHT22;9354;50.194;7.690;2023-06-22T04:30:21;20.80;99.90
18450;DHT22;9354;50.194;7.690;2023-06-22T04:32:49;20.70;99.90
18450;DHT22;9354;50.194;7.690;2023-06-22T04:35:22;20.70;99.90
18450;DHT22;9354;50.194;7.690;2023-06-22T04:37:52;20.70;99.90
18450;DHT22;9354;50.194;7.690;2023-06-22T04:40:21;20.70;99.90
18450;DHT22;9354;50.194;7.690;2023-06-22T04:42:49;20.60;99.90
18450;DHT22;9354;50.194;7.690;2023-06-22T04:45:20;20.50;99.90
18450;DHT22;9354;50.194;7.690;2023-06-22T04:47:48;20.50;99.90
18450;DHT22;9354;50.194;7.690;2023-06-22T04:50:15;20.60;99.90
18450;DHT22;9354;50.194;7.690;2023-06-22T04:52:43;20.60;99.90
18450;DHT22;9354;50.194;7.690;2023-06-22T04:55:14;20.70;99.90
18450;DHT22;9354;50.194;7.690;2023-06-22T04:57:44;20.70;99.90
18450;DHT22;9354;50.194;7.690;2023-06-22T05:00:15;20.80;99.90
18450;DHT22;9354;50.194;7.690;2023-06-22T05:02:44;20.80;99.90
18450;DHT22;9354;50.194;7.690;2023-06-22T05:05:12;20.80;99.90
18450;DHT22;9354;50.194;7.690;2023-06-22T05:07:42;20.80;99.90
18450;DHT22;9354;50.194;7.690;2023-06-22T05:10:12;20.80;99.90
18450;DHT22;9354;50.194;7.690;2023-06-22T05:12:39;20.80;99.90
18450;DHT22;9354;50.194;7.690;2023-06-22T05:15:08;20.80;99.90
18450;DHT22;9354;50.194;7.690;2023-06-22T05:17:36;20.90;99.90
18450;DHT22;9354;50.194;7.690;2023-06-22T05:20:09;20.90;99.90
18450;DHT22;9354;50.194;7.690;2023-06-22T05:22:37;21.00;99.90
18450;DHT22;9354;50.194;7.690;2023-06-22T05:25:07;21.10;99.90
18450;DHT22;9354;50.194;7.690;2023-06-22T05:27:36;21.10;99.90
18450;DHT22;9354;50.194;7.690;2023-06-22T05:30:06;21.10;99.90
18450;DHT22;9354;50.194;7.690;2023-06-22T05:32:34;21.10;99.90
18450;DHT22;9354;50.194;7.690;2023-06-22T05:35:02;21.10;99.90
18450;DHT22;9354;50.194;7.690;2023-06-22T05:37:29;21.10;99.90
18450;DHT22;9354;50.194;7.690;2023-06-22T05:39:57;21.10;99.90
18450;DHT22;9354;50.194;7.690;2023-06-22T05:42:24;21.20;99.90
18450;DHT22;9354;50.194;7.690;2023-06-22T05:44:53;21.20;99.90
18450;DHT22;9354;50.194;7.690;2023-06-22T05:47:21;21.20;99.90
18450;DHT22;9354;50.194;7.690;2023-06-22T05:49:48;21.20;99.90
18450;DHT22;9354;50.194;7.690;2023-06-22T05:52:16;21.20;99.90
18450;DHT22;9354;50.194;7.690;2023-06-22T05:54:43;21.30;99.90
18450;DHT22;9354;50.194;7.690;2023-06-22T05:57:11;21.30;99.90
18450;DHT22;9354;50.194;7.690;2023-06-22T05:59:38;21.30;99.90
18450;DHT22;9354;50.194;7.690;2023-06-22T06:02:07;21.30;99.90
18450;DHT22;9354;50.194;7.690;2023-06-22T06:04:34;21.40;99.90
18450;DHT22;9354;50.194;7.690;2023-06-22T06:07:02;21.40;99.90
18450;DHT22;9354;50.194;7.690;2023-06-22T06:09:29;21.40;99.90
18450;DHT22;9354;50.194;7.690;2023-06-22T06:11:56;21.50;99.90
18450;DHT22;9354;50.194;7.690;2023-06-22T06:14:24;21.50;99.90
18450;DHT22;9354;50.194;7.690;2023-06-22T06:16:51;21.70;99.90
18450;DHT22;9354;50.194;7.690;2023-06-22T06:19:20;21.70;99.90
18450;DHT22;9354;50.194;7.690;2023-06-22T06:21:47;21.80;99.90
18450;DHT22;9354;50.194;7.690;2023-06-22T06:24:15;21.80;99.90
18450;DHT22;9354;50.194;7.690;2023-06-22T06:26:43;21.80;99.90
18450;DHT22;9354;50.194;7.690;2023-06-22T06:29:10;21.80;99.90
18450;DHT22;9354;50.194;7.690;2023-06-22T06:31:37;21.90;99.90
18450;DHT22;9354;50.194;7.690;2023-06-22T06:34:05;21.90;99.90
18450;DHT22;9354;50.194;7.690;2023-06-22T06:36:33;21.90;99.90
18450;DHT22;9354;50.194;7.690;2023-06-22T06:39:01;21.90;99.90
18450;DHT22;9354;50.194;7.690;2023-06-22T06:41:29;22.00;99.90
18450;DHT22;9354;50.194;7.690;2023-06-22T06:43:56;22.10;99.90
18450;DHT22;9354;50.194;7.690;2023-06-22T06:46:24;22.20;99.90
18450;DHT22;9354;50.194;7.690;2023-06-22T06:48:51;22.30;99.90
18450;DHT22;9354;50.194;7.690;2023-06-22T06:51:18;22.40;99.90
18450;DHT22;9354;50.194;7.690;2023-06-22T06:53:47;22.50;99.90
18450;DHT22;9354;50.194;7.690;2023-06-22T06:56:14;22.60;99.90
18450;DHT22;9354;50.194;7.690;2023-06-22T06:58:42;22.70;99.90
18450;DHT22;9354;50.194;7.690;2023-06-22T07:01:11;22.80;99.90
18450;DHT22;9354;50.194;7.690;2023-06-22T07:03:38;22.90;99.90
18450;DHT22;9354;50.194;7.690;2023-06-22T07:06:06;22.90;99.90
18450;DHT22;9354;50.194;7.690;2023-06-22T07:08:33;23.00;99.90
18450;DHT22;9354;50.194;7.690;2023-06-22T07:11:02;23.10;99.90
18450;DHT22;9354;50.194;7.690;2023-06-22T07:13:29;23.20;99.90
18450;DHT22;9354;50.194;7.690;2023-06-22T07:15:57;23.40;99.90
18450;DHT22;9354;50.194;7.690;2023-06-22T07:18:25;23.40;99.90
18450;DHT22;9354;50.194;7.690;2023-06-22T07:20:52;23.50;99.90
18450;DHT22;9354;50.194;7.690;2023-06-22T07:23:20;23.60;99.90
18450;DHT22;9354;50.194;7.690;2023-06-22T07:25:47;23.70;99.90
18450;DHT22;9354;50.194;7.690;2023-06-22T07:28:16;23.70;99.90
18450;DHT22;9354;50.194;7.690;2023-06-22T07:30:43;23.80;99.90
18450;DHT22;9354;50.194;7.690;2023-06-22T07:33:11;23.90;99.90
18450;DHT22;9354;50.194;7.690;2023-06-22T07:35:38;23.90;99.90
18450;DHT22;9354;50.194;7.690;2023-06-22T07:38:06;24.00;99.90
18450;DHT22;9354;50.194;7.690;2023-06-22T07:40:35;24.10;99.90
18450;DHT22;9354;50.194;7.690;2023-06-22T07:43:02;24.20;99.90
18450;DHT22;9354;50.194;7.690;2023-06-22T07:45:31;24.30;99.90
18450;DHT22;9354;50.194;7.690;2023-06-22T07:48:01;24.30;99.90
18450;DHT22;9354;50.194;7.690;2023-06-22T07:50:28;24.40;99.90
18450;DHT22;9354;50.194;7.690;2023-06-22T07:52:55;24.60;99.90
18450;DHT22;9354;50.194;7.690;2023-06-22T07:55:23;24.70;99.90
18450;DHT22;9354;50.194;7.690;2023-06-22T07:57:50;24.80;99.90
18450;DHT22;9354;50.194;7.690;2023-06-22T08:00:19;24.90;99.90
18450;DHT22;9354;50.194;7.690;2023-06-22T08:02:47;25.00;99.90
18450;DHT22;9354;50.194;7.690;2023-06-22T08:05:15;25.10;99.90
18450;DHT22;9354;50.194;7.690;2023-06-22T08:07:43;25.20;99.90
18450;DHT22;9354;50.194;7.690;2023-06-22T08:10:11;25.30;99.90
18450;DHT22;9354;50.194;7.690;2023-06-22T08:12:39;25.40;99.90
18450;DHT22;9354;50.194;7.690;2023-06-22T08:15:07;25.50;99.90
18450;DHT22;9354;50.194;7.690;2023-06-22T08:17:36;25.60;99.90
18450;DHT22;9354;50.194;7.690;2023-06-22T08:20:06;25.60;99.90
18450;DHT22;9354;50.194;7.690;2023-06-22T08:22:38;25.70;99.90
18450;DHT22;9354;50.194;7.690;2023-06-22T08:25:07;25.80;99.90
18450;DHT22;9354;50.194;7.690;2023-06-22T08:27:35;25.90;99.90
18450;DHT22;9354;50.194;7.690;2023-06-22T08:30:04;26.00;99.90
18450;DHT22;9354;50.194;7.690;2023-06-22T08:32:31;26.10;99.90
18450;DHT22;9354;50.194;7.690;2023-06-22T08:34:59;26.20;99.90
18450;DHT22;9354;50.194;7.690;2023-06-22T08:37:28;26.40;99.90
18450;DHT22;9354;50.194;7.690;2023-06-22T08:39:58;26.40;99.90
18450;DHT22;9354;50.194;7.690;2023-06-22T08:42:25;26.50;99.90
18450;DHT22;9354;50.194;7.690;2023-06-22T08:44:53;26.50;99.90
18450;DHT22;9354;50.194;7.690;2023-06-22T08:47:20;26.50;99.90
18450;DHT22;9354;50.194;7.690;2023-06-22T08:49:49;26.60;99.90
18450;DHT22;9354;50.194;7.690;2023-06-22T08:52:17;26.70;99.90
18450;DHT22;9354;50.194;7.690;2023-06-22T08:54:47;26.80;99.90
18450;DHT22;9354;50.194;7.690;2023-06-22T08:57:14;27.00;99.90
18450;DHT22;9354;50.194;7.690;2023-06-22T08:59:42;27.20;99.90
18450;DHT22;9354;50.194;7.690;2023-06-22T09:02:09;27.40;99.90
18450;DHT22;9354;50.194;7.690;2023-06-22T09:04:36;27.60;99.90
18450;DHT22;9354;50.194;7.690;2023-06-22T09:07:04;27.70;99.90
18450;DHT22;9354;50.194;7.690;2023-06-22T09:09:32;27.90;99.90
18450;DHT22;9354;50.194;7.690;2023-06-22T09:12:01;28.00;99.90
18450;DHT22;9354;50.194;7.690;2023-06-22T09:14:28;28.00;99.90
18450;DHT22;9354;50.194;7.690;2023-06-22T09:16:56;28.00;99.90
18450;DHT22;9354;50.194;7.690;2023-06-22T09:19:23;28.00;99.90
18450;DHT22;9354;50.194;7.690;2023-06-22T09:21:51;28.00;99.90
18450;DHT22;9354;50.194;7.690;2023-06-22T09:24:18;28.00;99.90
18450;DHT22;9354;50.194;7.690;2023-06-22T09:26:46;27.80;99.90
18450;DHT22;9354;50.194;7.690;2023-06-22T09:29:14;27.80;99.90
18450;DHT22;9354;50.194;7.690;2023-06-22T09:31:42;27.80;99.90
18450;DHT22;9354;50.194;7.690;2023-06-22T09:34:10;27.80;99.90
18450;DHT22;9354;50.194;7.690;2023-06-22T09:36:37;27.80;99.90
18450;DHT22;9354;50.194;7.690;2023-06-22T09:39:05;27.70;99.90
18450;DHT22;9354;50.194;7.690;2023-06-22T09:41:33;27.60;99.90
18450;DHT22;9354;50.194;7.690;2023-06-22T09:44:00;27.50;99.90
18450;DHT22;9354;50.194;7.690;2023-06-22T09:46:29;27.30;99.90
18450;DHT22;9354;50.194;7.690;2023-06-22T09:48:56;27.20;99.90
18450;DHT22;9354;50.194;7.690;2023-06-22T09:51:24;27.00;99.90
18450;DHT22;9354;50.194;7.690;2023-06-22T09:53:51;26.80;99.90
18450;DHT22;9354;50.194;7.690;2023-06-22T09:56:19;26.70;99.90
18450;DHT22;9354;50.194;7.690;2023-06-22T09:58:47;26.70;99.90
18450;DHT22;9354;50.194;7.690;2023-06-22T10:01:16;26.80;99.90
18450;DHT22;9354;50.194;7.690;2023-06-22T10:03:45;26.80;99.90
18450;DHT22;9354;50.194;7.690;2023-06-22T10:06:12;26.80;99.90
18450;DHT22;9354;50.194;7.690;2023-06-22T10:08:40;26.90;99.90
18450;DHT22;9354;50.194;7.690;2023-06-22T10:11:08;26.90;99.90
18450;DHT22;9354;50.194;7.690;2023-06-22T10:13:35;27.00;99.90
18450;DHT22;9354;50.194;7.690;2023-06-22T10:16:02;27.00;99.90
18450;DHT22;9354;50.194;7.690;2023-06-22T10:18:30;27.00;99.90
18450;DHT22;9354;50.194;7.690;2023-06-22T10:21:00;27.00;99.90
18450;DHT22;9354;50.194;7.690;2023-06-22T10:23:27;26.90;99.90
18450;DHT22;9354;50.194;7.690;2023-06-22T10:25:55;26.90;99.90
18450;DHT22;9354;50.194;7.690;2023-06-22T10:28:24;26.70;99.90
18450;DHT22;9354;50.194;7.690;2023-06-22T10:30:51;26.60;99.90
18450;DHT22;9354;50.194;7.690;2023-06-22T10:33:18;26.70;99.90
18450;DHT22;9354;50.194;7.690;2023-06-22T10:35:46;26.80;99.90
18450;DHT22;9354;50.194;7.690;2023-06-22T10:38:15;26.90;99.90
18450;DHT22;9354;50.194;7.690;2023-06-22T10:40:42;27.00;99.90
18450;DHT22;9354;50.194;7.690;2023-06-22T10:43:11;27.20;99.90
18450;DHT22;9354;50.194;7.690;2023-06-22T10:45:39;27.30;99.90
18450;DHT22;9354;50.194;7.690;2023-06-22T10:48:06;27.40;99.90
18450;DHT22;9354;50.194;7.690;2023-06-22T10:50:34;27.60;99.90
18450;DHT22;9354;50.194;7.690;2023-06-22T10:53:01;27.90;99.90
18450;DHT22;9354;50.194;7.690;2023-06-22T10:55:30;28.20;99.90
18450;DHT22;9354;50.194;7.690;2023-06-22T10:57:57;28.50;99.90
18450;DHT22;9354;50.194;7.690;2023-06-22T11:00:24;28.70;99.90
18450;DHT22;9354;50.194;7.690;2023-06-22T11:02:52;28.90;99.90
18450;DHT22;9354;50.194;7.690;2023-06-22T11:05:19;29.10;99.90
18450;DHT22;9354;50.194;7.690;2023-06-22T11:07:46;29.10;99.90
18450;DHT22;9354;50.194;7.690;2023-06-22T11:10:15;29.30;99.90
18450;DHT22;9354;50.194;7.690;2023-06-22T11:12:44;29.40;99.90
18450;DHT22;9354;50.194;7.690;2023-06-22T11:15:11;29.50;99.90
18450;DHT22;9354;50.194;7.690;2023-06-22T11:17:39;29.50;99.90
18450;DHT22;9354;50.194;7.690;2023-06-22T11:20:07;29.60;99.90
18450;DHT22;9354;50.194;7.690;2023-06-22T11:22:37;29.80;99.90
18450;DHT22;9354;50.194;7.690;2023-06-22T11:25:06;30.10;99.90
18450;DHT22;9354;50.194;7.690;2023-06-22T11:27:33;30.10;99.90
18450;DHT22;9354;50.194;7.690;2023-06-22T11:30:03;30.10;99.90
18450;DHT22;9354;50.194;7.690;2023-06-22T11:32:30;30.10;99.90
18450;DHT22;9354;50.194;7.690;2023-06-22T11:34:58;30.20;99.90
18450;DHT22;9354;50.194;7.690;2023-06-22T11:37:25;30.20;99.90
18450;DHT22;9354;50.194;7.690;2023-06-22T11:39:53;30.30;99.90
18450;DHT22;9354;50.194;7.690;2023-06-22T11:42:21;30.30;99.90
18450;DHT22;9354;50.194;7.690;2023-06-22T11:44:49;30.30;99.90
18450;DHT22;9354;50.194;7.690;2023-06-22T11:47:18;30.30;99.90
18450;DHT22;9354;50.194;7.690;2023-06-22T11:49:45;30.10;99.90
18450;DHT22;9354;50.194;7.690;2023-06-22T11:52:13;29.90;99.90
18450;DHT22;9354;50.194;7.690;2023-06-22T11:54:40;29.70;99.90
18450;DHT22;9354;50.194;7.690;2023-06-22T11:57:07;29.60;99.90
18450;DHT22;9354;50.194;7.690;2023-06-22T11:59:35;29.50;99.90
18450;DHT22;9354;50.194;7.690;2023-06-22T12:02:02;29.70;99.90
18450;DHT22;9354;50.194;7.690;2023-06-22T12:04:32;29.90;99.90
18450;DHT22;9354;50.194;7.690;2023-06-22T12:07:00;30.20;99.90
18450;DHT22;9354;50.194;7.690;2023-06-22T12:09:28;30.60;99.90
18450;DHT22;9354;50.194;7.690;2023-06-22T12:11:55;30.80;99.90
18450;DHT22;9354;50.194;7.690;2023-06-22T12:14:23;30.90;99.90
18450;DHT22;9354;50.194;7.690;2023-06-22T12:16:50;31.00;99.90
18450;DHT22;9354;50.194;7.690;2023-06-22T12:19:17;31.20;99.90
18450;DHT22;9354;50.194;7.690;2023-06-22T12:21:46;31.50;99.90
18450;DHT22;9354;50.194;7.690;2023-06-22T12:24:13;31.80;99.90
18450;DHT22;9354;50.194;7.690;2023-06-22T12:26:41;32.10;99.90
18450;DHT22;9354;50.194;7.690;2023-06-22T12:29:10;32.50;99.90
18450;DHT22;9354;50.194;7.690;2023-06-22T12:31:37;32.70;99.90
18450;DHT22;9354;50.194;7.690;2023-06-22T12:34:05;32.80;99.90
18450;DHT22;9354;50.194;7.690;2023-06-22T12:36:33;32.80;99.90
18450;DHT22;9354;50.194;7.690;2023-06-22T12:39:01;33.00;99.90
18450;DHT22;9354;50.194;7.690;2023-06-22T12:41:29;33.00;99.90
18450;DHT22;9354;50.194;7.690;2023-06-22T12:43:56;32.90;99.90
18450;DHT22;9354;50.194;7.690;2023-06-22T12:46:23;32.90;99.90
18450;DHT22;9354;50.194;7.690;2023-06-22T12:48:51;32.80;99.90
18450;DHT22;9354;50.194;7.690;2023-06-22T12:51:21;32.80;99.90
18450;DHT22;9354;50.194;7.690;2023-06-22T12:53:49;32.90;99.90
18450;DHT22;9354;50.194;7.690;2023-06-22T12:56:18;32.80;99.90
18450;DHT22;9354;50.194;7.690;2023-06-22T12:58:45;32.70;99.90
18450;DHT22;9354;50.194;7.690;2023-06-22T13:01:12;32.40;99.90
18450;DHT22;9354;50.194;7.690;2023-06-22T13:03:41;32.30;99.90
18450;DHT22;9354;50.194;7.690;2023-06-22T13:06:09;32.40;99.90
18450;DHT22;9354;50.194;7.690;2023-06-22T13:08:36;32.30;99.90
18450;DHT22;9354;50.194;7.690;2023-06-22T13:11:03;32.20;99.90
18450;DHT22;9354;50.194;7.690;2023-06-22T13:13:32;31.90;99.90
18450;DHT22;9354;50.194;7.690;2023-06-22T13:16:00;31.70;99.90
18450;DHT22;9354;50.194;7.690;2023-06-22T13:18:27;31.50;99.90
18450;DHT22;9354;50.194;7.690;2023-06-22T13:20:55;31.40;99.90
18450;DHT22;9354;50.194;7.690;2023-06-22T13:23:24;31.60;99.90
18450;DHT22;9354;50.194;7.690;2023-06-22T13:25:51;31.80;99.90
18450;DHT22;9354;50.194;7.690;2023-06-22T13:28:18;31.90;99.90
18450;DHT22;9354;50.194;7.690;2023-06-22T13:30:48;32.20;99.90
18450;DHT22;9354;50.194;7.690;2023-06-22T13:33:15;32.30;99.90
18450;DHT22;9354;50.194;7.690;2023-06-22T13:35:43;32.20;99.90
18450;DHT22;9354;50.194;7.690;2023-06-22T13:38:10;31.80;99.90
18450;DHT22;9354;50.194;7.690;2023-06-22T13:40:38;31.40;99.90
18450;DHT22;9354;50.194;7.690;2023-06-22T13:43:05;31.10;99.90
18450;DHT22;9354;50.194;7.690;2023-06-22T13:45:33;30.70;99.90
18450;DHT22;9354;50.194;7.690;2023-06-22T13:48:01;30.30;99.90
18450;DHT22;9354;50.194;7.690;2023-06-22T13:50:29;30.00;99.90
18450;DHT22;9354;50.194;7.690;2023-06-22T13:52:56;29.80;99.90
18450;DHT22;9354;50.194;7.690;2023-06-22T13:55:23;29.70;99.90
18450;DHT22;9354;50.194;7.690;2023-06-22T13:57:52;29.50;99.90
18450;DHT22;9354;50.194;7.690;2023-06-22T14:00:20;29.30;99.90
18450;DHT22;9354;50.194;7.690;2023-06-22T14:02:47;29.10;99.90
18450;DHT22;9354;50.194;7.690;2023-06-22T14:05:16;28.90;99.90
18450;DHT22;9354;50.194;7.690;2023-06-22T14:07:43;28.70;99.90
18450;DHT22;9354;50.194;7.690;2023-06-22T14:10:10;28.60;99.90
18450;DHT22;9354;50.194;7.690;2023-06-22T14:12:38;28.40;99.90
18450;DHT22;9354;50.194;7.690;2023-06-22T14:15:06;28.30;99.90
18450;DHT22;9354;50.194;7.690;2023-06-22T14:17:33;28.10;99.90
18450;DHT22;9354;50.194;7.690;2023-06-22T14:20:01;27.90;99.90
18450;DHT22;9354;50.194;7.690;2023-06-22T14:22:30;27.70;99.90
18450;DHT22;9354;50.194;7.690;2023-06-22T14:24:57;27.50;99.90
18450;DHT22;9354;50.194;7.690;2023-06-22T14:27:25;27.30;99.90
18450;DHT22;9354;50.194;7.690;2023-06-22T14:29:53;26.90;99.90
18450;DHT22;9354;50.194;7.690;2023-06-22T14:32:20;26.40;99.90
18450;DHT22;9354;50.194;7.690;2023-06-22T14:34:47;25.60;99.90
18450;DHT22;9354;50.194;7.690;2023-06-22T14:37:16;24.90;99.90
18450;DHT22;9354;50.194;7.690;2023-06-22T14:39:44;24.20;99.90
18450;DHT22;9354;50.194;7.690;2023-06-22T14:42:12;23.70;99.90
18450;DHT22;9354;50.194;7.690;2023-06-22T14:44:39;23.40;99.90
18450;DHT22;9354;50.194;7.690;2023-06-22T14:47:07;23.20;99.90
18450;DHT22;9354;50.194;7.690;2023-06-22T14:49:34;23.10;99.90
18450;DHT22;9354;50.194;7.690;2023-06-22T14:52:02;23.00;99.90
18450;DHT22;9354;50.194;7.690;2023-06-22T14:54:30;22.90;99.90
18450;DHT22;9354;50.194;7.690;2023-06-22T14:56:59;22.90;99.90
18450;DHT22;9354;50.194;7.690;2023-06-22T14:59:26;22.90;99.90
18450;DHT22;9354;50.194;7.690;2023-06-22T15:01:54;23.00;99.90
18450;DHT22;9354;50.194;7.690;2023-06-22T15:04:21;23.00;99.90
18450;DHT22;9354;50.194;7.690;2023-06-22T15:06:48;23.10;99.90
18450;DHT22;9354;50.194;7.690;2023-06-22T15:09:16;23.20;99.90
18450;DHT22;9354;50.194;7.690;2023-06-22T15:11:43;23.20;99.90
18450;DHT22;9354;50.194;7.690;2023-06-22T15:14:13;23.10;99.90
18450;DHT22;9354;50.194;7.690;2023-06-22T15:16:41;22.80;99.90
18450;DHT22;9354;50.194;7.690;2023-06-22T15:19:08;22.60;99.90
18450;DHT22;9354;50.194;7.690;2023-06-22T15:21:38;22.40;99.90
18450;DHT22;9354;50.194;7.690;2023-06-22T15:24:06;22.30;99.90
18450;DHT22;9354;50.194;7.690;2023-06-22T15:26:33;22.20;99.90
18450;DHT22;9354;50.194;7.690;2023-06-22T15:29:00;22.20;99.90
18450;DHT22;9354;50.194;7.690;2023-06-22T15:31:29;22.20;99.90
18450;DHT22;9354;50.194;7.690;2023-06-22T15:33:56;22.20;99.90
18450;DHT22;9354;50.194;7.690;2023-06-22T15:36:24;22.20;99.90
18450;DHT22;9354;50.194;7.690;2023-06-22T15:38:51;22.20;99.90
18450;DHT22;9354;50.194;7.690;2023-06-22T15:41:18;22.10;99.90
18450;DHT22;9354;50.194;7.690;2023-06-22T15:43:46;22.10;99.90
18450;DHT22;9354;50.194;7.690;2023-06-22T15:46:13;22.00;99.90
18450;DHT22;9354;50.194;7.690;2023-06-22T15:48:44;22.00;99.90
18450;DHT22;9354;50.194;7.690;2023-06-22T15:51:12;22.10;99.90